createdAt,value
2018-05-29T00:01:25.151Z,18.90
2018-05-29T00:03:53.386Z,17.67
2018-05-29T00:06:21.697Z,18.40
2018-05-29T00:08:49.805Z,17.60
2018-05-29T00:11:17.981Z,17.47
2018-05-29T00:13:46.111Z,17.87
2018-05-29T00:16:14.366Z,18.23
2018-05-29T00:18:42.578Z,17.23
2018-05-29T00:21:10.697Z,17.77
2018-05-29T00:23:38.948Z,17.77
2018-05-29T00:26:07.099Z,17.73
2018-05-29T00:28:35.301Z,17.60
2018-05-29T00:31:03.457Z,18.70
2018-05-29T00:33:31.593Z,16.60
2018-05-29T00:35:59.736Z,17.40
2018-05-29T00:38:27.933Z,18.67
2018-05-29T00:40:56.087Z,18.03
2018-05-29T00:43:24.300Z,18.80
2018-05-29T00:45:52.482Z,18.10
2018-05-29T00:48:20.607Z,18.00
2018-05-29T00:50:48.691Z,18.70
2018-05-29T00:53:16.867Z,17.80
2018-05-29T00:55:45.089Z,18.57
2018-05-29T00:58:13.238Z,17.70
2018-05-29T01:00:41.423Z,17.07
2018-05-29T01:03:09.664Z,17.00
2018-05-29T01:05:37.840Z,17.37
2018-05-29T01:08:06.044Z,17.63
2018-05-29T01:10:34.122Z,17.90
2018-05-29T01:13:02.286Z,17.40
2018-05-29T01:15:30.445Z,16.73
2018-05-29T01:17:58.572Z,16.77
2018-05-29T01:20:26.842Z,17.00
2018-05-29T01:22:54.970Z,18.77
2018-05-29T01:25:23.165Z,16.30
2018-05-29T01:27:51.316Z,16.47
2018-05-29T01:30:19.503Z,17.40
2018-05-29T01:32:47.633Z,16.93
2018-05-29T01:35:15.806Z,15.87
2018-05-29T01:37:43.980Z,16.67
2018-05-29T01:40:12.126Z,15.70
2018-05-29T01:42:40.347Z,15.80
2018-05-29T01:45:08.558Z,16.03
2018-05-29T01:47:36.732Z,15.60
2018-05-29T01:50:04.819Z,15.03
2018-05-29T01:52:33.028Z,14.83
2018-05-29T01:55:01.220Z,16.40
2018-05-29T01:57:29.442Z,16.27
2018-05-29T01:59:57.625Z,15.33
2018-05-29T02:02:25.777Z,15.10
2018-05-29T02:04:54.018Z,15.57
2018-05-29T02:07:22.140Z,15.10
2018-05-29T02:09:50.297Z,15.70
2018-05-29T02:12:18.488Z,15.27
2018-05-29T02:14:46.620Z,16.00
2018-05-29T02:17:14.803Z,15.40
2018-05-29T02:19:43.032Z,14.60
2018-05-29T02:22:11.171Z,14.37
2018-05-29T02:24:39.357Z,15.60
2018-05-29T02:27:07.438Z,14.77
2018-05-29T02:29:35.506Z,14.63
2018-05-29T02:32:03.615Z,15.23
2018-05-29T02:34:31.696Z,14.47
2018-05-29T02:36:59.780Z,13.87
2018-05-29T02:39:27.869Z,15.20
2018-05-29T02:41:55.985Z,15.03
2018-05-29T02:44:24.094Z,14.70
2018-05-29T02:46:52.174Z,15.20
2018-05-29T02:49:20.252Z,14.63
2018-05-29T02:51:48.337Z,15.60
2018-05-29T02:54:16.553Z,15.50
2018-05-29T02:56:44.606Z,15.00
2018-05-29T02:59:12.670Z,14.83
2018-05-29T03:01:40.740Z,15.73
2018-05-29T03:04:08.825Z,14.60
2018-05-29T03:06:37.015Z,14.97
2018-05-29T03:09:05.876Z,14.93
2018-05-29T03:11:34.237Z,14.67
2018-05-29T03:14:02.323Z,15.33
2018-05-29T03:16:30.579Z,14.83
2018-05-29T03:18:58.906Z,15.80
2018-05-29T03:21:27.385Z,14.13
2018-05-29T03:23:57.178Z,14.83
2018-05-29T03:26:25.666Z,14.83
2018-05-29T03:28:54.166Z,14.97
2018-05-29T03:31:22.560Z,15.33
2018-05-29T03:33:51.536Z,14.90
2018-05-29T03:36:20.205Z,15.57
2018-05-29T03:38:48.906Z,15.00
2018-05-29T03:41:17.433Z,15.47
2018-05-29T03:43:46.244Z,16.37
2018-05-29T03:46:15.057Z,16.00
2018-05-29T03:48:43.635Z,15.50
2018-05-29T03:51:11.990Z,16.07
2018-05-29T03:53:40.432Z,16.23
2018-05-29T03:56:09.302Z,15.27
2018-05-29T03:58:38.029Z,15.80
2018-05-29T04:01:08.000Z,15.60
2018-05-29T04:03:37.482Z,14.60
2018-05-29T04:06:06.461Z,16.77
2018-05-29T04:08:35.438Z,17.00
2018-05-29T04:11:04.602Z,16.30
2018-05-29T04:13:33.353Z,16.17
2018-05-29T04:16:02.505Z,16.17
2018-05-29T04:18:31.116Z,15.17
2018-05-29T04:20:59.953Z,16.23
2018-05-29T04:23:28.963Z,16.33
2018-05-29T04:25:57.811Z,17.43
2018-05-29T04:28:26.807Z,16.47
2018-05-29T04:30:55.428Z,18.23
2018-05-29T04:33:24.046Z,16.17
2018-05-29T04:35:52.859Z,16.97
2018-05-29T04:38:21.593Z,16.87
2018-05-29T04:40:50.194Z,16.87
2018-05-29T04:43:19.375Z,17.10
2018-05-29T04:45:48.370Z,16.80
2018-05-29T04:48:17.469Z,16.40
2018-05-29T04:50:46.837Z,16.40
2018-05-29T04:53:15.713Z,17.17
2018-05-29T04:55:44.552Z,17.67
2018-05-29T04:58:13.060Z,16.57
2018-05-29T05:00:41.672Z,17.10
2018-05-29T05:03:10.216Z,18.20
2018-05-29T05:05:38.991Z,17.77
2018-05-29T05:08:07.664Z,17.80
2018-05-29T05:10:36.515Z,16.77
2018-05-29T05:13:05.314Z,16.80
2018-05-29T05:15:34.187Z,17.70
2018-05-29T05:18:02.844Z,18.93
2018-05-29T05:20:32.680Z,18.43
2018-05-29T05:23:01.786Z,18.30
2018-05-29T05:25:30.395Z,20.07
2018-05-29T05:27:59.660Z,17.63
2018-05-29T05:30:28.202Z,17.70
2018-05-29T05:32:57.873Z,17.47
2018-05-29T05:35:27.173Z,16.50
2018-05-29T05:37:55.608Z,17.93
2018-05-29T05:40:24.353Z,17.50
2018-05-29T05:42:52.951Z,17.17
2018-05-29T05:45:22.173Z,16.90
2018-05-29T05:47:50.879Z,17.17
2018-05-29T05:50:19.786Z,18.20
2018-05-29T05:52:48.819Z,17.50
2018-05-29T05:55:17.874Z,16.73
2018-05-29T05:57:47.071Z,17.03
2018-05-29T06:00:18.175Z,17.30
2018-05-29T06:02:48.018Z,17.10
2018-05-29T06:05:17.874Z,20.17
2018-05-29T06:07:47.328Z,17.27
2018-05-29T06:10:16.341Z,18.37
2018-05-29T06:12:45.524Z,17.40
2018-05-29T06:15:14.817Z,17.17
2018-05-29T06:17:44.251Z,19.50
2018-05-29T06:20:13.107Z,17.20
2018-05-29T06:22:41.891Z,17.20
2018-05-29T06:25:10.503Z,16.27
2018-05-29T06:27:39.776Z,17.47
2018-05-29T06:30:09.494Z,16.90
2018-05-29T06:32:38.063Z,17.37
2018-05-29T06:35:07.151Z,17.37
2018-05-29T06:37:36.379Z,16.77
2018-05-29T06:40:05.372Z,15.47
2018-05-29T06:42:34.421Z,15.60
2018-05-29T06:45:03.084Z,15.90
2018-05-29T06:47:32.379Z,16.00
2018-05-29T06:50:01.127Z,16.00
2018-05-29T06:52:30.346Z,15.17
2018-05-29T06:54:59.327Z,15.43
2018-05-29T06:57:28.199Z,16.20
2018-05-29T06:59:57.747Z,15.57
2018-05-29T07:02:29.120Z,16.10
2018-05-29T07:04:58.002Z,16.63
2018-05-29T07:07:26.892Z,16.37
2018-05-29T07:09:55.502Z,15.50
2018-05-29T07:12:24.481Z,16.67
2018-05-29T07:14:53.126Z,15.57
2018-05-29T07:17:22.231Z,15.47
2018-05-29T07:19:50.872Z,15.83
2018-05-29T07:22:19.575Z,16.20
2018-05-29T07:24:48.166Z,16.40
2018-05-29T07:27:17.135Z,15.10
2018-05-29T07:29:45.604Z,15.27
2018-05-29T07:32:14.316Z,14.77
2018-05-29T07:34:42.912Z,15.37
2018-05-29T07:37:11.711Z,15.87
2018-05-29T07:39:40.298Z,16.03
2018-05-29T07:42:09.113Z,14.93
2018-05-29T07:44:37.950Z,15.40
2018-05-29T07:47:06.865Z,15.27
2018-05-29T07:49:35.416Z,14.93
2018-05-29T07:52:04.448Z,16.67
2018-05-29T07:54:33.040Z,14.47
2018-05-29T07:57:02.451Z,15.23
2018-05-29T07:59:31.657Z,14.37
2018-05-29T08:02:00.858Z,14.50
2018-05-29T08:04:30.182Z,13.80
2018-05-29T08:06:59.272Z,14.20
2018-05-29T08:09:27.918Z,14.87
2018-05-29T08:11:56.914Z,13.63
2018-05-29T08:14:25.636Z,14.30
2018-05-29T08:16:54.540Z,13.33
2018-05-29T08:19:22.882Z,14.17
2018-05-29T08:21:51.645Z,13.57
2018-05-29T08:24:20.283Z,13.00
2018-05-29T08:26:49.144Z,11.80
2018-05-29T08:29:18.286Z,12.27
2018-05-29T08:31:47.016Z,11.70
2018-05-29T08:34:15.390Z,12.27
2018-05-29T08:36:45.301Z,14.00
2018-05-29T08:39:14.246Z,12.87
2018-05-29T08:41:42.937Z,13.00
2018-05-29T08:44:11.557Z,12.47
2018-05-29T08:46:40.337Z,12.93
2018-05-29T08:49:08.995Z,11.43
2018-05-29T08:51:37.639Z,10.93
2018-05-29T08:54:07.155Z,11.60
2018-05-29T08:56:35.884Z,11.87
2018-05-29T08:59:04.767Z,11.43
2018-05-29T09:01:33.203Z,12.23
2018-05-29T09:04:02.202Z,12.23
2018-05-29T09:06:30.707Z,12.33
2018-05-29T09:08:59.565Z,12.17
2018-05-29T09:11:28.255Z,11.53
2018-05-29T09:13:56.876Z,12.47
2018-05-29T09:16:25.462Z,12.40
2018-05-29T09:18:54.352Z,12.47
2018-05-29T09:21:22.919Z,11.37
2018-05-29T09:23:51.839Z,10.83
2018-05-29T09:26:20.583Z,10.73
2018-05-29T09:28:49.630Z,9.80
2018-05-29T09:31:18.692Z,11.43
2018-05-29T09:33:47.822Z,10.17
2018-05-29T09:36:16.712Z,10.87
2018-05-29T09:38:45.519Z,10.60
2018-05-29T09:41:15.674Z,10.23
2018-05-29T09:43:44.784Z,11.87
2018-05-29T09:46:13.180Z,8.97
2018-05-29T09:48:41.843Z,10.87
2018-05-29T09:51:10.641Z,9.47
2018-05-29T09:53:39.443Z,10.40
2018-05-29T09:56:07.977Z,10.40
2018-05-29T09:58:36.901Z,9.30
2018-05-29T10:01:07.055Z,9.77
2018-05-29T10:03:35.792Z,9.90
2018-05-29T10:06:04.984Z,10.97
2018-05-29T10:08:33.723Z,10.13
2018-05-29T10:11:02.399Z,10.57
2018-05-29T10:13:31.066Z,9.77
2018-05-29T10:15:59.803Z,9.53
2018-05-29T10:18:28.174Z,9.83
2018-05-29T10:21:00.102Z,8.73
2018-05-29T10:23:29.311Z,10.00
2018-05-29T10:25:57.974Z,8.43
2018-05-29T10:28:27.579Z,9.27
2018-05-29T10:30:56.047Z,6.10
2018-05-29T10:33:24.643Z,6.93
2018-05-29T10:35:53.212Z,8.60
2018-05-29T10:38:22.494Z,8.93
2018-05-29T10:40:51.605Z,8.00
2018-05-29T10:43:20.478Z,7.93
2018-05-29T10:45:49.525Z,8.07
2018-05-29T10:48:18.022Z,7.20
2018-05-29T10:50:46.744Z,7.60
2018-05-29T10:53:15.420Z,7.17
2018-05-29T10:55:44.145Z,7.47
2018-05-29T10:58:13.003Z,7.80
2018-05-29T11:00:42.466Z,7.30
2018-05-29T11:03:11.023Z,7.27
2018-05-29T11:05:39.694Z,7.83
2018-05-29T11:08:08.379Z,6.97
2018-05-29T11:10:36.853Z,6.37
2018-05-29T11:13:05.628Z,6.57
2018-05-29T11:15:34.565Z,7.53
2018-05-29T11:18:03.109Z,7.10
2018-05-29T11:20:32.236Z,6.87
2018-05-29T11:23:01.324Z,7.73
2018-05-29T11:25:30.344Z,6.23
2018-05-29T11:27:59.380Z,7.13
2018-05-29T11:30:27.881Z,6.53
2018-05-29T11:32:56.853Z,5.83
2018-05-29T11:35:25.483Z,6.50
2018-05-29T11:37:54.680Z,6.53
2018-05-29T11:40:23.436Z,6.07
2018-05-29T11:42:52.432Z,6.30
2018-05-29T11:45:21.039Z,6.83
2018-05-29T11:47:50.083Z,6.37
2018-05-29T11:50:19.351Z,5.47
2018-05-29T11:52:47.860Z,5.77
2018-05-29T11:55:16.752Z,6.37
2018-05-29T11:57:45.617Z,6.03
2018-05-29T12:00:14.810Z,5.27
2018-05-29T12:02:43.389Z,5.87
2018-05-29T12:05:12.836Z,5.03
2018-05-29T12:07:42.262Z,6.37
2018-05-29T12:10:11.679Z,6.23
2018-05-29T12:12:40.562Z,6.23
2018-05-29T12:15:10.214Z,6.13
2018-05-29T12:17:39.244Z,5.87
2018-05-29T12:20:07.974Z,6.73
2018-05-29T12:22:36.880Z,5.80
2018-05-29T12:25:05.439Z,6.40
2018-05-29T12:27:34.250Z,5.87
2018-05-29T12:30:03.107Z,7.07
2018-05-29T12:32:31.881Z,6.20
2018-05-29T12:35:01.037Z,6.93
2018-05-29T12:37:30.248Z,6.17
2018-05-29T12:39:59.212Z,6.20
2018-05-29T12:42:28.083Z,6.20
2018-05-29T12:44:57.523Z,6.13
2018-05-29T12:47:26.471Z,6.40
2018-05-29T12:49:57.423Z,5.87
2018-05-29T12:52:26.651Z,6.50
2018-05-29T12:54:55.810Z,6.70
2018-05-29T12:57:25.129Z,6.53
2018-05-29T12:59:53.935Z,6.43
2018-05-29T13:02:22.700Z,6.37
2018-05-29T13:04:51.812Z,6.27
2018-05-29T13:07:20.426Z,5.83
2018-05-29T13:09:51.182Z,6.30
2018-05-29T13:12:19.926Z,6.03
2018-05-29T13:14:48.440Z,6.05
2018-05-29T13:17:17.195Z,6.43
2018-05-29T13:19:45.938Z,6.50
2018-05-29T13:22:15.233Z,6.03
2018-05-29T13:24:44.170Z,6.20
2018-05-29T13:27:12.718Z,6.93
2018-05-29T13:29:42.685Z,6.28
2018-05-29T13:32:11.644Z,6.60
2018-05-29T13:34:40.787Z,5.90
2018-05-29T13:37:10.610Z,6.50
2018-05-29T13:39:40.102Z,6.03
2018-05-29T13:42:09.006Z,5.83
2018-05-29T13:44:38.060Z,6.73
2018-05-29T13:47:06.593Z,6.17
2018-05-29T13:49:35.114Z,6.35
2018-05-29T13:52:03.733Z,5.87
2018-05-29T13:54:32.297Z,6.63
2018-05-29T13:57:00.947Z,5.73
2018-05-29T13:59:30.036Z,6.00
2018-05-29T14:01:58.536Z,5.43
2018-05-29T14:04:27.229Z,6.25
2018-05-29T14:06:55.916Z,5.03
2018-05-29T14:09:25.600Z,6.07
2018-05-29T14:11:54.895Z,6.15
2018-05-29T14:14:23.509Z,5.07
2018-05-29T14:16:52.146Z,5.90
2018-05-29T14:19:20.964Z,6.03
2018-05-29T14:21:49.838Z,6.30
2018-05-29T14:24:19.141Z,6.87
2018-05-29T14:26:48.156Z,6.72
2018-05-29T14:29:16.826Z,6.57
2018-05-29T14:31:45.838Z,6.65
2018-05-29T14:34:15.499Z,6.85
2018-05-29T14:36:44.545Z,6.95
2018-05-29T14:39:13.227Z,6.87
2018-05-29T14:41:42.757Z,6.87
2018-05-29T14:44:12.124Z,6.87
2018-05-29T14:46:41.128Z,6.22
2018-05-29T14:49:10.399Z,6.10
2018-05-29T14:51:39.460Z,7.37
2018-05-29T14:54:07.931Z,8.10
2018-05-29T14:56:36.627Z,6.95
2018-05-29T14:59:05.408Z,5.87
2018-05-29T15:01:34.209Z,7.53
2018-05-29T15:04:04.305Z,7.30
2018-05-29T15:06:32.831Z,7.60
2018-05-29T15:09:02.329Z,8.00
2018-05-29T15:11:31.008Z,7.60
2018-05-29T15:13:59.987Z,6.90
2018-05-29T15:16:29.289Z,7.47
2018-05-29T15:18:58.278Z,6.75
2018-05-29T15:21:27.525Z,8.15
2018-05-29T15:23:56.593Z,8.32
2018-05-29T15:26:25.891Z,7.47
2018-05-29T15:28:55.230Z,7.62
2018-05-29T15:31:24.312Z,7.37
2018-05-29T15:33:53.462Z,7.13
2018-05-29T15:36:22.233Z,8.30
2018-05-29T15:38:50.550Z,7.40
2018-05-29T15:41:19.323Z,7.30
2018-05-29T15:43:47.857Z,7.05
2018-05-29T15:46:17.014Z,7.37
2018-05-29T15:48:45.837Z,7.50
2018-05-29T15:51:17.299Z,8.10
2018-05-29T15:53:47.701Z,7.20
2018-05-29T15:56:16.651Z,8.23
2018-05-29T15:58:46.756Z,8.13
2018-05-29T16:01:15.956Z,7.67
2018-05-29T16:03:45.744Z,8.33
2018-05-29T16:06:15.909Z,7.40
2018-05-29T16:08:45.060Z,7.90
2018-05-29T16:11:13.769Z,7.63
2018-05-29T16:13:42.885Z,8.17
2018-05-29T16:16:11.824Z,7.00
2018-05-29T16:18:40.267Z,7.17
2018-05-29T16:21:09.253Z,7.80
2018-05-29T16:23:38.142Z,7.50
2018-05-29T16:26:07.458Z,7.67
2018-05-29T16:28:35.936Z,8.00
2018-05-29T16:31:06.135Z,8.17
2018-05-29T16:33:35.703Z,8.23
2018-05-29T16:36:04.527Z,8.40
2018-05-29T16:38:33.378Z,7.97
2018-05-29T16:41:04.475Z,8.17
2018-05-29T16:43:33.583Z,8.37
2018-05-29T16:46:05.413Z,7.77
2018-05-29T16:48:35.342Z,8.20
2018-05-29T16:51:05.134Z,7.37
2018-05-29T16:53:34.427Z,8.37
2018-05-29T16:56:04.205Z,8.47
2018-05-29T16:58:33.583Z,8.30
2018-05-29T17:01:03.045Z,8.40
2018-05-29T17:03:32.056Z,8.83
2018-05-29T17:06:00.921Z,8.83
2018-05-29T17:08:30.047Z,8.90
2018-05-29T17:10:59.407Z,8.90
2018-05-29T17:13:29.224Z,9.00
2018-05-29T17:16:01.978Z,10.00
2018-05-29T17:18:32.399Z,8.40
2018-05-29T17:21:01.757Z,9.13
2018-05-29T17:23:31.244Z,10.57
2018-05-29T17:26:00.833Z,10.07
2018-05-29T17:28:30.612Z,9.47
2018-05-29T17:31:00.376Z,8.60
2018-05-29T17:33:30.879Z,9.43
2018-05-29T17:36:01.047Z,9.73
2018-05-29T17:38:31.017Z,9.60
2018-05-29T17:41:00.486Z,9.90
2018-05-29T17:43:30.473Z,9.43
2018-05-29T17:46:00.497Z,9.80
2018-05-29T17:48:30.260Z,10.00
2018-05-29T17:50:59.489Z,9.30
2018-05-29T17:53:28.700Z,10.10
2018-05-29T17:55:59.364Z,9.77
2018-05-29T17:58:28.484Z,9.60
2018-05-29T18:00:57.827Z,9.87
2018-05-29T18:03:27.505Z,9.07
2018-05-29T18:05:56.826Z,9.80
2018-05-29T18:08:25.716Z,9.90
2018-05-29T18:10:55.866Z,9.70
2018-05-29T18:13:25.118Z,10.30
2018-05-29T18:15:53.966Z,9.80
2018-05-29T18:18:24.333Z,9.83
2018-05-29T18:20:53.355Z,10.37
2018-05-29T18:23:22.542Z,9.83
2018-05-29T18:25:51.255Z,9.60
2018-05-29T18:28:19.994Z,9.50
2018-05-29T18:30:49.035Z,10.07
2018-05-29T18:33:17.822Z,10.27
2018-05-29T18:35:47.124Z,9.97
2018-05-29T18:38:15.737Z,9.57
2018-05-29T18:40:44.340Z,10.20
2018-05-29T18:43:13.773Z,10.07
2018-05-29T18:45:42.418Z,10.77
2018-05-29T18:48:10.925Z,10.27
2018-05-29T18:50:40.484Z,10.33
2018-05-29T18:53:09.219Z,10.60
2018-05-29T18:55:38.216Z,10.57
2018-05-29T18:58:06.970Z,9.90
2018-05-29T19:00:35.624Z,9.47
2018-05-29T19:03:04.282Z,10.73
2018-05-29T19:05:32.775Z,10.37
2018-05-29T19:08:01.056Z,10.53
2018-05-29T19:10:29.433Z,10.27
2018-05-29T19:12:57.578Z,10.27
2018-05-29T19:15:25.780Z,9.33
2018-05-29T19:17:54.056Z,10.10
2018-05-29T19:20:22.313Z,9.93
2018-05-29T19:22:50.425Z,9.27
2018-05-29T19:25:18.599Z,10.50
2018-05-29T19:27:46.684Z,9.50
2018-05-29T19:30:14.840Z,9.83
2018-05-29T19:32:42.925Z,9.63
2018-05-29T19:35:11.047Z,8.23
2018-05-29T19:37:39.129Z,8.60
2018-05-29T19:40:07.327Z,8.47
2018-05-29T19:42:35.388Z,7.80
2018-05-29T19:45:03.457Z,7.30
2018-05-29T19:47:31.585Z,7.53
2018-05-29T19:49:59.713Z,7.00
2018-05-29T19:52:27.763Z,6.70
2018-05-29T19:54:55.852Z,7.47
2018-05-29T19:57:23.981Z,6.80
2018-05-29T19:59:52.104Z,7.57
2018-05-29T20:02:20.205Z,7.73
2018-05-29T20:04:48.450Z,6.60
2018-05-29T20:07:16.669Z,7.50
2018-05-29T20:09:44.921Z,7.00
2018-05-29T20:12:13.247Z,7.33
2018-05-29T20:14:41.577Z,6.50
2018-05-29T20:17:09.925Z,7.00
2018-05-29T20:19:38.334Z,7.40
2018-05-29T20:22:06.638Z,6.90
2018-05-29T20:24:34.836Z,7.33
2018-05-29T20:27:02.991Z,7.47
2018-05-29T20:29:31.696Z,7.47
2018-05-29T20:32:00.137Z,7.50
2018-05-29T20:34:28.386Z,7.23
2018-05-29T20:36:56.645Z,7.57
2018-05-29T20:39:25.983Z,6.83
2018-05-29T20:41:54.126Z,6.90
2018-05-29T20:44:22.392Z,7.60
2018-05-29T20:46:50.653Z,7.40
2018-05-29T20:49:19.086Z,7.60
2018-05-29T20:51:47.258Z,7.40
2018-05-29T20:54:15.401Z,7.30
2018-05-29T20:56:43.663Z,6.87
2018-05-29T20:59:11.787Z,6.93
2018-05-29T21:01:40.192Z,6.93
2018-05-29T21:04:08.396Z,6.77
2018-05-29T21:06:36.662Z,7.30
2018-05-29T21:09:04.980Z,6.93
2018-05-29T21:11:33.213Z,6.53
2018-05-29T21:14:01.543Z,7.47
2018-05-29T21:16:29.758Z,7.43
2018-05-29T21:18:57.889Z,7.97
2018-05-29T21:21:26.049Z,6.80
2018-05-29T21:23:54.299Z,6.77
2018-05-29T21:26:22.711Z,6.27
2018-05-29T21:28:50.961Z,7.83
2018-05-29T21:31:19.209Z,9.27
2018-05-29T21:33:47.524Z,11.30
2018-05-29T21:36:15.680Z,10.47
2018-05-29T21:38:44.264Z,10.07
2018-05-29T21:41:12.716Z,11.57
2018-05-29T21:43:40.907Z,11.73
2018-05-29T21:46:09.370Z,10.77
2018-05-29T21:48:37.592Z,9.70
2018-05-29T21:51:05.747Z,12.53
2018-05-29T21:53:36.243Z,10.30
2018-05-29T21:56:04.581Z,11.50
2018-05-29T21:58:32.753Z,12.80
2018-05-29T22:01:00.879Z,15.63
2018-05-29T22:03:29.252Z,17.90
2018-05-29T22:05:57.439Z,17.47
2018-05-29T22:08:25.611Z,16.67
2018-05-29T22:10:53.773Z,15.47
2018-05-29T22:13:21.958Z,15.23
2018-05-29T22:15:50.689Z,14.10
2018-05-29T22:18:18.884Z,14.50
2018-05-29T22:20:47.133Z,13.63
2018-05-29T22:23:15.303Z,11.50
2018-05-29T22:25:43.520Z,13.73
2018-05-29T22:28:11.664Z,14.27
2018-05-29T22:30:39.963Z,13.77
2018-05-29T22:33:08.088Z,12.00
2018-05-29T22:35:36.276Z,10.57
2018-05-29T22:38:05.595Z,9.67
2018-05-29T22:40:33.730Z,8.40
2018-05-29T22:43:01.920Z,7.40
2018-05-29T22:45:30.043Z,7.77
2018-05-29T22:47:58.276Z,7.77
2018-05-29T22:50:26.560Z,7.80
2018-05-29T22:52:54.849Z,7.03
2018-05-29T22:55:23.654Z,7.50
2018-05-29T22:57:51.793Z,7.40
2018-05-29T23:00:19.988Z,7.73
2018-05-29T23:02:48.396Z,6.87
2018-05-29T23:05:16.592Z,7.17
2018-05-29T23:07:46.037Z,7.53
2018-05-29T23:10:14.235Z,7.33
2018-05-29T23:12:42.512Z,9.27
2018-05-29T23:15:11.092Z,9.37
2018-05-29T23:17:39.783Z,9.67
2018-05-29T23:20:08.122Z,8.63
2018-05-29T23:22:37.040Z,8.13
2018-05-29T23:25:05.237Z,8.10
2018-05-29T23:27:35.039Z,8.23
2018-05-29T23:30:03.691Z,7.50
2018-05-29T23:32:31.851Z,7.23
2018-05-29T23:35:00.454Z,8.33
2018-05-29T23:37:29.175Z,8.63
2018-05-29T23:39:58.151Z,7.33
2018-05-29T23:42:26.592Z,6.70
2018-05-29T23:44:55.412Z,6.37
2018-05-29T23:47:23.789Z,6.83
2018-05-29T23:49:52.220Z,7.07
2018-05-29T23:52:20.679Z,7.20
2018-05-29T23:54:49.134Z,7.23
2018-05-29T23:57:17.653Z,8.17
2018-05-29T23:59:46.205Z,8.77
